sensor_id;sensor_type;location;lat;lon;timestamp;temperature;humidity
25568;DHT22;13455;51.480;7.594;2024-02-14T02:55:22;8.00;99.90
25568;DHT22;13455;51.480;7.594;2024-02-14T05:46:33;8.80;99.90
25568;DHT22;13455;51.480;7.594;2024-02-14T05:48:58;8.80;99.90
25568;DHT22;13455;51.480;7.594;2024-02-14T05:51:24;8.80;99.90
25568;DHT22;13455;51.480;7.594;2024-02-14T05:53:50;8.80;99.90
25568;DHT22;13455;51.480;7.594;2024-02-14T05:56:15;8.80;99.90
25568;DHT22;13455;51.480;7.594;2024-02-14T05:58:41;8.70;99.90
25568;DHT22;13455;51.480;7.594;2024-02-14T06:01:07;8.80;99.90
25568;DHT22;13455;51.480;7.594;2024-02-14T06:03:32;8.90;99.90
25568;DHT22;13455;51.480;7.594;2024-02-14T06:05:58;8.80;99.90
25568;DHT22;13455;51.480;7.594;2024-02-14T06:08:24;8.80;99.90
25568;DHT22;13455;51.480;7.594;2024-02-14T06:10:50;8.90;99.90
25568;DHT22;13455;51.480;7.594;2024-02-14T06:15:41;8.70;99.90
25568;DHT22;13455;51.480;7.594;2024-02-14T09:33:38;10.40;99.90
25568;DHT22;13455;51.480;7.594;2024-02-14T09:36:04;10.50;99.90
25568;DHT22;13455;51.480;7.594;2024-02-14T09:48:29;10.50;99.90
25568;DHT22;13455;51.480;7.594;2024-02-14T10:03:09;10.90;99.90
25568;DHT22;13455;51.480;7.594;2024-02-14T10:05:36;10.90;99.90
25568;DHT22;13455;51.480;7.594;2024-02-14T10:08:01;10.20;99.90
25568;DHT22;13455;51.480;7.594;2024-02-14T10:10:27;11.00;99.90
25568;DHT22;13455;51.480;7.594;2024-02-14T10:12:55;10.70;99.90
25568;DHT22;13455;51.480;7.594;2024-02-14T10:15:22;11.00;99.90
25568;DHT22;13455;51.480;7.594;2024-02-14T10:17:47;10.60;99.90
25568;DHT22;13455;51.480;7.594;2024-02-14T10:20:17;10.80;99.90
25568;DHT22;13455;51.480;7.594;2024-02-14T10:22:43;10.70;99.90
25568;DHT22;13455;51.480;7.594;2024-02-14T10:25:10;10.90;99.90
25568;DHT22;13455;51.480;7.594;2024-02-14T10:27:39;10.90;99.90
25568;DHT22;13455;51.480;7.594;2024-02-14T10:30:08;10.60;99.90
25568;DHT22;13455;51.480;7.594;2024-02-14T10:32:37;10.80;99.90
25568;DHT22;13455;51.480;7.594;2024-02-14T10:35:04;10.80;99.90
25568;DHT22;13455;51.480;7.594;2024-02-14T10:37:34;10.60;99.90
25568;DHT22;13455;51.480;7.594;2024-02-14T10:40:02;10.80;99.90
25568;DHT22;13455;51.480;7.594;2024-02-14T10:42:29;10.90;99.90
25568;DHT22;13455;51.480;7.594;2024-02-14T10:44:54;10.70;99.90
25568;DHT22;13455;51.480;7.594;2024-02-14T10:47:20;10.90;99.90
25568;DHT22;13455;51.480;7.594;2024-02-14T10:49:50;10.90;99.90
25568;DHT22;13455;51.480;7.594;2024-02-14T10:52:17;10.80;99.90
25568;DHT22;13455;51.480;7.594;2024-02-14T10:54:55;11.20;99.90
25568;DHT22;13455;51.480;7.594;2024-02-14T10:57:25;10.90;99.90
25568;DHT22;13455;51.480;7.594;2024-02-14T10:59:51;11.30;99.90
25568;DHT22;13455;51.480;7.594;2024-02-14T11:02:19;11.10;99.90
25568;DHT22;13455;51.480;7.594;2024-02-14T11:04:45;11.20;99.90
25568;DHT22;13455;51.480;7.594;2024-02-14T11:07:11;11.30;99.90
25568;DHT22;13455;51.480;7.594;2024-02-14T11:09:39;10.90;99.90
25568;DHT22;13455;51.480;7.594;2024-02-14T11:12:10;11.10;99.90
25568;DHT22;13455;51.480;7.594;2024-02-14T11:14:36;11.40;99.90
25568;DHT22;13455;51.480;7.594;2024-02-14T11:17:04;11.30;99.90
25568;DHT22;13455;51.480;7.594;2024-02-14T11:34:37;11.50;99.90
25568;DHT22;13455;51.480;7.594;2024-02-14T11:37:03;11.40;99.90
25568;DHT22;13455;51.480;7.594;2024-02-14T11:39:32;11.50;99.90
25568;DHT22;13455;51.480;7.594;2024-02-14T11:41:58;11.50;99.90
25568;DHT22;13455;51.480;7.594;2024-02-14T11:51:46;11.60;99.90
25568;DHT22;13455;51.480;7.594;2024-02-14T11:54:13;11.80;99.90
25568;DHT22;13455;51.480;7.594;2024-02-14T11:56:39;12.10;99.90
25568;DHT22;13455;51.480;7.594;2024-02-14T11:59:06;11.90;99.90
25568;DHT22;13455;51.480;7.594;2024-02-14T12:01:37;12.00;99.90
25568;DHT22;13455;51.480;7.594;2024-02-14T12:04:05;12.00;99.90
